createdAt,value
2023-03-04T00:01:48.798Z,98185.09
2023-03-04T00:07:11.401Z,98216.13
2023-03-04T00:12:33.777Z,98205.59
2023-03-04T00:17:56.079Z,98200.34
2023-03-04T00:23:18.251Z,98209.97
2023-03-04T00:28:41.055Z,98200.00
2023-03-04T00:34:03.065Z,98201.84
2023-03-04T00:39:25.266Z,98188.31
2023-03-04T00:44:47.508Z,98184.59
2023-03-04T00:50:10.474Z,98167.63
2023-03-04T00:55:33.123Z,98186.75
2023-03-04T01:00:55.044Z,98174.03
2023-03-04T01:06:17.315Z,98172.75
2023-03-04T01:11:39.884Z,98163.41
2023-03-04T01:17:02.084Z,98144.88
2023-03-04T01:22:24.324Z,98145.16
2023-03-04T01:27:46.567Z,98152.75
2023-03-04T01:33:08.944Z,98169.47
2023-03-04T01:38:31.445Z,98154.06
2023-03-04T01:43:55.092Z,98159.06
2023-03-04T01:49:18.164Z,98138.66
2023-03-04T01:54:42.274Z,98149.34
2023-03-04T02:00:20.328Z,98171.91
2023-03-04T02:05:46.510Z,98151.28
2023-03-04T02:11:11.487Z,98150.72
2023-03-04T02:16:33.973Z,98153.69
2023-03-04T02:21:56.092Z,98127.84
2023-03-04T02:27:20.376Z,98130.47
2023-03-04T02:32:44.407Z,98132.69
2023-03-04T02:38:06.770Z,98138.78
2023-03-04T02:43:28.862Z,98134.81
2023-03-04T02:48:53.946Z,98129.28
2023-03-04T02:54:22.476Z,98113.44
2023-03-04T02:59:45.303Z,98101.56
2023-03-04T03:05:13.938Z,98092.56
2023-03-04T03:10:36.232Z,98100.06
2023-03-04T03:15:59.199Z,98091.00
2023-03-04T03:21:21.116Z,98064.00
2023-03-04T03:26:42.934Z,98078.31
2023-03-04T03:32:05.249Z,98086.00
2023-03-04T03:37:27.226Z,98061.09
2023-03-04T03:42:50.000Z,98065.78
2023-03-04T03:48:12.587Z,98071.91
2023-03-04T03:53:34.389Z,98069.84
2023-03-04T03:58:56.526Z,98063.22
2023-03-04T04:04:18.411Z,98048.38
2023-03-04T04:09:40.771Z,98049.75
2023-03-04T04:15:02.526Z,98042.09
2023-03-04T04:20:26.754Z,98048.16
2023-03-04T04:25:48.683Z,98023.06
2023-03-04T04:31:11.252Z,98023.66
2023-03-04T04:36:32.960Z,98002.78
2023-03-04T04:41:55.167Z,98038.19
2023-03-04T04:47:16.828Z,98038.69
2023-03-04T04:52:41.081Z,98060.00
2023-03-04T04:58:03.167Z,98043.75
2023-03-04T05:03:53.934Z,98030.84
2023-03-04T05:09:16.302Z,98051.06
2023-03-04T05:14:38.925Z,98032.41
2023-03-04T05:20:01.261Z,98052.59
2023-03-04T05:25:24.895Z,98024.06
2023-03-04T05:30:47.609Z,98005.56
2023-03-04T05:36:10.026Z,98009.25
2023-03-04T05:41:32.338Z,98029.13
2023-03-04T05:46:54.504Z,98025.47
2023-03-04T05:52:18.553Z,98012.53
2023-03-04T05:57:40.507Z,98013.09
2023-03-04T06:03:02.362Z,98031.16
2023-03-04T06:08:24.708Z,98033.00
2023-03-04T06:13:47.005Z,98023.41
2023-03-04T06:19:09.284Z,98013.13
2023-03-04T06:24:31.273Z,98009.97
2023-03-04T06:29:54.004Z,98024.00
2023-03-04T06:35:17.643Z,98015.50
2023-03-04T06:40:39.866Z,98038.44
2023-03-04T06:46:01.818Z,98016.50
2023-03-04T06:51:24.148Z,97995.13
2023-03-04T06:56:46.190Z,98011.28
2023-03-04T07:02:12.952Z,98009.19
2023-03-04T07:07:37.829Z,97997.28
2023-03-04T07:12:59.859Z,97944.41
2023-03-04T07:18:21.898Z,97942.81
2023-03-04T07:23:45.271Z,97928.28
2023-03-04T07:29:10.212Z,97956.00
2023-03-04T07:34:35.681Z,97946.97
2023-03-04T07:39:57.731Z,97916.31
2023-03-04T07:45:20.960Z,97938.22
2023-03-04T07:50:43.123Z,97960.34
2023-03-04T07:56:06.923Z,97963.44
2023-03-04T08:01:34.971Z,97972.25
2023-03-04T08:13:42.369Z,97947.88
2023-03-04T08:19:07.290Z,97953.53
2023-03-04T08:24:29.448Z,97951.13
2023-03-04T08:29:51.807Z,97945.81
2023-03-04T08:35:14.301Z,97957.63
2023-03-04T08:40:36.274Z,97930.84
2023-03-04T08:45:58.921Z,97939.03
2023-03-04T08:51:21.368Z,97926.06
2023-03-04T08:56:44.022Z,97927.22
2023-03-04T09:02:09.308Z,97909.19
2023-03-04T09:07:33.765Z,97915.31
2023-03-04T09:12:56.286Z,97919.84
2023-03-04T09:18:19.945Z,97900.75
2023-03-04T09:23:50.520Z,97895.38
2023-03-04T09:29:12.633Z,97890.53
2023-03-04T09:34:34.486Z,97876.91
2023-03-04T09:39:56.675Z,97884.13
2023-03-04T09:45:22.708Z,97886.34
2023-03-04T09:51:00.284Z,97879.47
2023-03-04T09:56:23.405Z,97891.31
2023-03-04T10:01:53.028Z,97887.50
2023-03-04T10:07:22.002Z,97881.25
2023-03-04T10:12:47.813Z,97881.34
2023-03-04T10:18:34.275Z,97876.13
2023-03-04T10:23:59.655Z,97866.28
2023-03-04T10:29:25.216Z,97861.41
2023-03-04T10:34:47.702Z,97863.63
2023-03-04T10:40:28.142Z,97855.84
2023-03-04T10:45:55.225Z,97849.44
2023-03-04T10:51:29.287Z,97851.00
2023-03-04T10:56:59.773Z,97840.25
2023-03-04T11:02:29.662Z,97851.94
2023-03-04T11:08:00.759Z,97844.34
2023-03-04T11:13:27.383Z,97825.31
2023-03-04T11:18:53.616Z,97811.19
2023-03-04T11:24:29.081Z,97782.88
2023-03-04T11:30:36.030Z,97782.00
2023-03-04T11:36:29.543Z,97822.50
2023-03-04T11:42:01.651Z,97764.22
2023-03-04T11:48:04.739Z,97786.09
2023-03-04T11:53:54.449Z,97789.00
2023-03-04T11:59:44.966Z,97792.72
2023-03-04T12:05:23.234Z,97755.28
2023-03-04T12:11:05.582Z,97775.31
2023-03-04T12:17:08.814Z,97772.34
2023-03-04T12:22:36.363Z,97749.84
2023-03-04T12:28:19.245Z,97741.06
2023-03-04T12:33:56.299Z,97767.19
2023-03-04T12:39:52.106Z,97728.34
2023-03-04T12:45:20.946Z,97750.75
2023-03-04T12:50:49.422Z,97718.03
2023-03-04T12:56:24.403Z,97721.47
2023-03-04T13:02:02.837Z,97729.44
2023-03-04T13:07:38.153Z,97717.06
2023-03-04T13:13:01.608Z,97719.47
2023-03-04T13:18:37.011Z,97718.72
2023-03-04T13:24:22.692Z,97714.06
2023-03-04T13:29:44.951Z,97695.38
2023-03-04T13:35:47.417Z,97705.44
2023-03-04T13:41:46.424Z,97692.81
2023-03-04T13:47:16.667Z,97697.09
2023-03-04T13:52:40.221Z,97691.84
2023-03-04T13:58:03.957Z,97704.16
2023-03-04T14:03:31.423Z,97700.97
2023-03-04T14:08:55.031Z,97671.00
2023-03-04T14:14:27.605Z,97682.53
2023-03-04T14:19:53.615Z,97666.94
2023-03-04T14:25:24.231Z,97679.00
2023-03-04T14:30:58.014Z,97675.16
2023-03-04T14:36:23.976Z,97660.50
2023-03-04T14:41:48.667Z,97675.66
2023-03-04T14:47:19.574Z,97664.09
2023-03-04T14:52:47.564Z,97650.44
2023-03-04T14:58:24.660Z,97667.56
2023-03-04T15:04:12.229Z,97679.25
2023-03-04T15:09:36.888Z,97679.53
2023-03-04T15:15:01.540Z,97665.31
2023-03-04T15:20:28.283Z,97672.97
2023-03-04T15:26:02.407Z,97670.94
2023-03-04T15:31:28.756Z,97664.41
2023-03-04T15:36:51.661Z,97661.03
2023-03-04T15:42:15.065Z,97658.13
2023-03-04T15:47:37.602Z,97676.59
2023-03-04T15:53:02.862Z,97677.19
2023-03-04T15:58:25.505Z,97660.09
2023-03-04T16:10:02.953Z,97630.84
2023-03-04T16:15:28.455Z,97612.56
2023-03-04T16:20:51.921Z,97633.66
2023-03-04T16:26:17.983Z,97632.84
2023-03-04T16:31:39.978Z,97618.38
2023-03-04T16:37:13.541Z,97636.59
2023-03-04T16:42:36.032Z,97602.84
2023-03-04T16:47:58.764Z,97587.28
2023-03-04T16:53:32.649Z,97605.41
2023-03-04T16:58:57.525Z,97597.34
2023-03-04T17:04:19.990Z,97592.91
2023-03-04T17:09:43.133Z,97583.50
2023-03-04T17:15:05.651Z,97581.09
2023-03-04T17:20:27.767Z,97555.66
2023-03-04T17:25:57.825Z,97564.63
2023-03-04T17:31:21.723Z,97565.47
2023-03-04T17:36:43.550Z,97558.41
2023-03-04T17:42:06.587Z,97550.28
2023-03-04T17:47:28.629Z,97550.34
2023-03-04T17:52:50.436Z,97526.63
2023-03-04T17:58:12.422Z,97537.44
2023-03-04T18:03:34.937Z,97505.25
2023-03-04T18:08:57.772Z,97509.41
2023-03-04T18:14:20.242Z,97510.41
2023-03-04T18:19:43.085Z,97493.03
2023-03-04T18:25:11.247Z,97496.50
2023-03-04T18:30:34.726Z,97471.72
2023-03-04T18:36:05.894Z,97503.28
2023-03-04T18:41:28.397Z,97484.28
2023-03-04T18:46:56.927Z,97459.44
2023-03-04T18:52:19.332Z,97467.84
2023-03-04T18:57:48.436Z,97468.84
2023-03-04T19:03:13.878Z,97449.38
2023-03-04T19:08:36.740Z,97464.03
2023-03-04T19:13:59.056Z,97453.78
2023-03-04T19:19:21.787Z,97441.91
2023-03-04T19:24:43.910Z,97425.59
2023-03-04T19:30:07.456Z,97432.94
2023-03-04T19:35:30.486Z,97410.28
2023-03-04T19:40:52.697Z,97412.63
2023-03-04T19:46:15.191Z,97401.28
2023-03-04T19:51:37.686Z,97400.72
2023-03-04T19:56:59.985Z,97389.13
2023-03-04T20:02:22.166Z,97376.72
2023-03-04T20:07:44.588Z,97365.94
2023-03-04T20:13:11.325Z,97393.84
2023-03-04T20:18:33.822Z,97363.34
2023-03-04T20:23:56.302Z,97371.69
2023-03-04T20:29:19.378Z,97363.28
2023-03-04T20:34:41.821Z,97352.56
2023-03-04T20:40:07.056Z,97330.47
2023-03-04T20:45:29.416Z,97338.63
2023-03-04T20:50:51.602Z,97333.31
2023-03-04T20:56:13.832Z,97319.00
2023-03-04T21:01:40.831Z,97310.34
2023-03-04T21:07:03.460Z,97332.69
2023-03-04T21:12:26.488Z,97331.16
2023-03-04T21:17:50.324Z,97303.28
2023-03-04T21:23:12.652Z,97289.38
2023-03-04T21:28:34.754Z,97294.38
2023-03-04T21:34:00.671Z,97316.69
2023-03-04T21:39:24.867Z,97300.13
2023-03-04T21:44:50.155Z,97276.41
2023-03-04T21:50:13.074Z,97299.25
2023-03-04T21:55:35.140Z,97293.41
2023-03-04T22:00:58.646Z,97288.88
2023-03-04T22:06:23.231Z,97289.91
2023-03-04T22:11:46.032Z,97283.56
2023-03-04T22:17:08.382Z,97270.16
2023-03-04T22:22:31.664Z,97255.22
2023-03-04T22:27:53.649Z,97268.59
2023-03-04T22:33:16.085Z,97257.78
2023-03-04T22:38:39.142Z,97252.50
2023-03-04T22:44:01.686Z,97243.31
2023-03-04T22:49:23.957Z,97245.09
2023-03-04T22:54:46.435Z,97237.25
2023-03-04T23:00:19.410Z,97213.63
2023-03-04T23:05:41.858Z,97182.69
2023-03-04T23:11:41.276Z,97218.44
2023-03-04T23:17:03.393Z,97213.47
2023-03-04T23:22:25.358Z,97172.25
2023-03-04T23:27:47.419Z,97181.38
2023-03-04T23:33:09.748Z,97167.50
2023-03-04T23:38:32.094Z,97157.03
2023-03-04T23:43:56.137Z,97143.44
2023-03-04T23:49:18.661Z,97134.75
2023-03-04T23:54:40.850Z,97162.25
